Relevés horaires Beauvechain (Belgique)


Relevés horaires à Beauvechain - Lundi 06 Avr. 2020
Heure UTC1 Température [°C] Vent [km/h] Hum. [%] Pres.4 [hPa] Visi. [Km] Nébu. [octa] Préc.5 [mm] Cond.
2m. Res. Ros. Dir.2 Vit. Moy. Raf.3
23:00 12.6 12.6 9.5 OSO 3.7 -- 5.6 81 1027.7(1.7/3h) 16 -- -- --
22:00 12.3 12.3 9.4 O 3.7 -- 7.4 82 1027(2.0/3h) 19 -- -- --
21:00 12.8 12.8 9.5 O 5.6 -- 14.8 80 1026.5(2.7/3h) 19 -- -- NA
20:00 13.3 13.3 9.5 OSO 5.6 -- 9.3 78 1025.9(2.9/3h) 20 -- -- --
19:00 13.5 13.2 10.1 O 7.4 -- 14.8 80 1025(3.2/3h) 20 -- -- NA
18:00 14.5 14.1 9.6 O 9.3 -- 20.4 72 1023.7(2.7/3h) 20 -- -- --
17:00 16.1 15.8 5.4 O 11.1 -- 20.4 49 1022.7(2.3/3h) 20 -- -- --
16:00 18.5 18.5 5.9 O 11.1 -- 20.4 44 1021.3(1.2/3h) 20 -- -- --
15:00 20.8 20.8 3.5 SO 13.0 -- 20.4 32 1020.6(1.0/3h) 18 4/8 -- --
14:00 21.1 21.1 2.8 SSO 13.0 -- 20.4 30 1020.2(1.1/3h) 18 2/8 -- --
13:00 21.1 21.1 2.3 SSO 13.0 -- 18.5 29 1019.8(1.1/3h) 18 2/8 -- --
12:00 20.4 20.4 3.0 SO 11.1 -- 20.4 32 1019.6(0.9/3h) 18 2/8 -- --
11:00 19.2 19.2 2.5 SSO 9.3 -- 16.7 33 1019.1(1.1/3h) 18 1/8 -- --
10:00 17.2 17 1.6 SSO 13.0 -- 18.5 35 1019(1.2/3h) 15 0/8 -- --
09:00 16.1 15.6 1.8 SSO 13.0 -- 20.4 38 1018.7(1.9/3h) 15 0/8 -- --
08:00 14.5 13.7 1.5 SSO 13.0 -- 16.7 41 1018.2(1.6/3h) 15 0/8 -- --
07:00 12.8 11.6 1.6 S 13.0 -- 16.7 46 1017.8(1.6/3h) 15 0/8 -- --
06:00 11.6 11 0.7 S 7.4 -- 14.8 47 1017.1(0.9/3h) 15 0/8 -- --
05:00 11.1 10.4 0.7 S 7.4 -- 11.1 49 1016.7(0.4/3h) 15 0/8 -- --
04:00 11.5 10.9 0.6 S 7.4 -- 14.8 47 1016.2(-0.2/3h) 20 -- -- --
03:00 12.0 11.5 0.4 SSE 7.4 -- 13.0 45 1016.1(-0.3/3h) 20 -- -- --
02:00 12.3 11.8 0.3 SSE 7.4 -- 13.0 44 1016.2(-0.3/3h) 20 -- -- --
01:00 12.7 12.3 0.2 SSE 7.4 -- 13.0 42 1016.3(0.0/3h) 20 -- -- --
00:00 12.1 11.6 0.3 SSE 7.4 -- 9.3 44 1016.5(0.0/3h) 20 -- -- --

1 Coordinated Universal Time. Actuellement il est 12:00 locale et 10:00 UTC.

2 Le vent souffle depuis la direction indiquée vers la direction oposée.

3 Les rafales max. sont disponible 40 min après l'heure du relevé.

4 Pour les stations d'altitude (plus de 600m) le géopotentiel du niveau le plus proche de la pression obligatoire est indiqué.

5 Les stations disposant d'un diffuseur peuvent indiquer "trace". Cela signifie que des précipitations ont touchés le sol mais que la quantité est inférieure à 0.1 mm.

Récapitulatif de la journée
Température [°C] Vent [km/h] Ensoleillement4 [h] Precipitations totale5 [mm] Pression [Hpa]
Min1 Max.2 Moy.3 Max. Min Max.
10.8 21.6 0 20.4 0 h 0 min 0 1016.1 1027.7

1 Température minimale relevée entre 18:00 UTC la veille et 18:00 UTC le jour donné.

2 Température maximale relevée entre 06:00 UTC le jour donné et 06:00 UTC le lendemain.

3 Vent moyen de la journée basé sur les relevés horaires.

4 Ensoleillement en heures relevé entre 06:00 UTC la veille et 06:00 UTC le jour donné.

5 Précipitations totales tombées entre 06:00 UTC la jour donné et 06:00 UTC le lendemain.

Graphiques horaires